createdAt,value
2022-07-26T00:01:01.353Z,95038.38
2022-07-26T00:03:30.662Z,95082.00
2022-07-26T00:05:58.586Z,95078.19
2022-07-26T00:08:26.736Z,95082.50
2022-07-26T00:10:54.678Z,95074.66
2022-07-26T00:13:23.283Z,95014.19
2022-07-26T00:15:52.252Z,95085.91
2022-07-26T00:18:20.802Z,95090.09
2022-07-26T00:20:50.537Z,95083.38
2022-07-26T00:23:19.480Z,95082.53
2022-07-26T00:25:47.994Z,95090.09
2022-07-26T00:28:15.891Z,95079.56
2022-07-26T00:30:43.911Z,95085.06
2022-07-26T00:33:11.776Z,95082.69
2022-07-26T00:35:39.829Z,95069.28
2022-07-26T00:38:09.204Z,95072.75
2022-07-26T00:40:37.355Z,95064.06
2022-07-26T00:43:05.280Z,95072.28
2022-07-26T00:45:33.287Z,95069.19
2022-07-26T00:48:01.180Z,95068.31
2022-07-26T00:50:29.017Z,95074.22
2022-07-26T00:52:57.194Z,95069.06
2022-07-26T00:55:26.463Z,95071.38
2022-07-26T00:57:54.443Z,95072.19
2022-07-26T01:00:26.518Z,95081.69
2022-07-26T01:02:55.279Z,95080.88
2022-07-26T01:05:24.265Z,95074.50
2022-07-26T01:07:53.079Z,95076.34
2022-07-26T01:10:21.172Z,95075.38
2022-07-26T01:12:50.509Z,95025.13
2022-07-26T01:15:18.537Z,95070.00
2022-07-26T01:17:47.480Z,95078.16
2022-07-26T01:20:15.724Z,95066.44
2022-07-26T01:22:45.094Z,95059.84
2022-07-26T01:25:12.981Z,95064.41
2022-07-26T01:27:41.127Z,95069.63
2022-07-26T01:30:12.489Z,95068.38
2022-07-26T01:32:40.498Z,95023.94
2022-07-26T01:35:09.695Z,95068.44
2022-07-26T01:37:37.698Z,95059.19
2022-07-26T01:40:08.482Z,95064.66
2022-07-26T01:42:40.756Z,95067.50
2022-07-26T01:45:09.971Z,95067.19
2022-07-26T01:47:38.227Z,95062.94
2022-07-26T01:50:07.886Z,95066.94
2022-07-26T01:52:35.927Z,95067.34
2022-07-26T01:55:04.025Z,95073.69
2022-07-26T01:57:33.298Z,95066.69
2022-07-26T02:00:01.270Z,95068.28
2022-07-26T02:02:29.742Z,95024.16
2022-07-26T02:05:00.378Z,95074.84
2022-07-26T02:07:29.493Z,95045.63
2022-07-26T02:09:57.984Z,95081.38
2022-07-26T02:12:26.477Z,95080.28
2022-07-26T02:14:55.833Z,95084.25
2022-07-26T02:17:23.801Z,95081.13
2022-07-26T02:19:52.395Z,95087.16
2022-07-26T02:22:21.069Z,95088.75
2022-07-26T02:24:49.356Z,95091.81
2022-07-26T02:27:18.545Z,95086.19
2022-07-26T02:29:46.505Z,95075.31
2022-07-26T02:32:15.844Z,95065.22
2022-07-26T02:34:43.793Z,95039.56
2022-07-26T02:37:11.656Z,95093.09
2022-07-26T02:39:39.553Z,95086.91
2022-07-26T02:42:07.549Z,95092.03
2022-07-26T02:44:36.665Z,95080.53
2022-07-26T02:47:04.607Z,95080.91
2022-07-26T02:49:33.865Z,95082.31
2022-07-26T02:52:01.741Z,95085.84
2022-07-26T02:54:29.624Z,95088.16
2022-07-26T02:56:57.478Z,95096.00
2022-07-26T02:59:25.380Z,95080.31
2022-07-26T03:01:53.307Z,95095.13
2022-07-26T03:04:21.286Z,95046.72
2022-07-26T03:06:50.582Z,95096.34
2022-07-26T03:09:18.565Z,95093.66
2022-07-26T03:11:46.462Z,95090.59
2022-07-26T03:14:14.452Z,95089.03
2022-07-26T03:16:42.363Z,95096.84
2022-07-26T03:19:10.287Z,95101.13
2022-07-26T03:21:38.184Z,95050.00
2022-07-26T03:24:08.446Z,95106.25
2022-07-26T03:26:36.613Z,95100.03
2022-07-26T03:29:04.644Z,95099.63
2022-07-26T03:31:32.582Z,95110.25
2022-07-26T03:34:03.246Z,95005.63
2022-07-26T03:36:31.465Z,95112.59
2022-07-26T03:38:59.394Z,95118.09
2022-07-26T03:41:31.616Z,95106.72
2022-07-26T03:43:59.521Z,95105.59
2022-07-26T03:46:27.567Z,95104.81
2022-07-26T03:48:55.701Z,95110.66
2022-07-26T03:51:23.747Z,95106.34
2022-07-26T03:53:51.931Z,95094.22
2022-07-26T03:56:32.067Z,95097.69
2022-07-26T03:59:03.930Z,95100.00
2022-07-26T04:01:32.315Z,95099.63
2022-07-26T04:04:00.381Z,95100.00
2022-07-26T04:06:29.545Z,95096.06
2022-07-26T04:08:57.905Z,95082.03
2022-07-26T04:11:28.260Z,95099.94
2022-07-26T04:13:56.950Z,95105.81
2022-07-26T04:16:26.403Z,95062.13
2022-07-26T04:18:54.521Z,95107.72
2022-07-26T04:21:22.974Z,95103.75
2022-07-26T04:23:51.735Z,95110.75
2022-07-26T04:26:20.215Z,95101.28
2022-07-26T04:28:48.518Z,95094.91
2022-07-26T04:31:16.718Z,95088.63
2022-07-26T04:33:46.003Z,95098.69
2022-07-26T04:36:13.993Z,95093.91
2022-07-26T04:38:42.187Z,95079.03
2022-07-26T04:41:10.205Z,95086.28
2022-07-26T04:43:38.125Z,95096.31
2022-07-26T04:46:06.133Z,95092.75
2022-07-26T04:48:34.114Z,95042.66
2022-07-26T04:51:03.575Z,95094.53
2022-07-26T04:53:31.659Z,95091.34
2022-07-26T04:56:14.678Z,95090.81
2022-07-26T04:58:42.565Z,95097.84
2022-07-26T05:01:11.207Z,95087.59
2022-07-26T05:03:39.414Z,95090.91
2022-07-26T05:06:08.985Z,95082.47
2022-07-26T05:08:36.903Z,95091.41
2022-07-26T05:11:05.163Z,95094.69
2022-07-26T05:13:33.053Z,95085.28
2022-07-26T05:16:01.935Z,95085.03
2022-07-26T05:18:48.810Z,95081.78
2022-07-26T05:21:19.718Z,95074.16
2022-07-26T05:23:47.649Z,95082.13
2022-07-26T05:26:15.839Z,95077.13
2022-07-26T05:28:43.757Z,95086.00
2022-07-26T05:31:11.718Z,95079.47
2022-07-26T05:33:39.644Z,95078.84
2022-07-26T05:36:07.888Z,95051.94
2022-07-26T05:38:37.220Z,95074.06
2022-07-26T05:41:05.520Z,95080.88
2022-07-26T05:43:41.606Z,95088.41
2022-07-26T05:46:10.846Z,95077.69
2022-07-26T05:48:39.031Z,95076.75
2022-07-26T05:51:07.153Z,95076.41
2022-07-26T05:53:35.092Z,95072.22
2022-07-26T05:56:04.811Z,95068.31
2022-07-26T05:58:32.796Z,95060.38
2022-07-26T06:01:00.705Z,95064.53
2022-07-26T06:03:30.156Z,94980.88
2022-07-26T06:05:59.743Z,95068.69
2022-07-26T06:08:27.772Z,95066.59
2022-07-26T06:10:56.247Z,95067.75
2022-07-26T06:13:25.600Z,95063.91
2022-07-26T06:15:53.717Z,95038.16
2022-07-26T06:18:21.612Z,95055.25
2022-07-26T06:20:50.411Z,95058.13
2022-07-26T06:23:18.273Z,95053.56
2022-07-26T06:26:02.265Z,95058.47
2022-07-26T06:28:31.542Z,95053.53
2022-07-26T06:30:59.570Z,95020.78
2022-07-26T06:33:27.552Z,95047.34
2022-07-26T06:35:55.409Z,95025.72
2022-07-26T06:38:23.651Z,95029.44
2022-07-26T06:40:51.565Z,95057.88
2022-07-26T06:43:19.545Z,95045.41
2022-07-26T06:45:49.428Z,95052.03
2022-07-26T06:48:17.440Z,95046.47
2022-07-26T06:50:45.537Z,95007.66
2022-07-26T06:53:13.529Z,95048.56
2022-07-26T06:55:42.680Z,95042.88
2022-07-26T06:58:10.953Z,95042.34
2022-07-26T07:00:38.898Z,95036.69
2022-07-26T07:03:08.282Z,95036.88
2022-07-26T07:05:36.205Z,95039.13
2022-07-26T07:08:04.725Z,95037.78
2022-07-26T07:10:35.326Z,95032.31
2022-07-26T07:13:04.004Z,95039.69
2022-07-26T07:15:31.934Z,95013.22
2022-07-26T07:17:59.797Z,95038.00
2022-07-26T07:20:29.496Z,95032.47
2022-07-26T07:22:57.425Z,95034.69
2022-07-26T07:25:30.835Z,95040.13
2022-07-26T07:27:59.353Z,95043.41
2022-07-26T07:30:27.927Z,95039.44
2022-07-26T07:32:56.825Z,95035.78
2022-07-26T07:35:25.093Z,95042.19
2022-07-26T07:38:02.026Z,95038.72
2022-07-26T07:40:30.320Z,94993.44
2022-07-26T07:42:58.875Z,94972.53
2022-07-26T07:45:26.912Z,95040.28
2022-07-26T07:47:54.976Z,94951.94
2022-07-26T07:50:22.897Z,95040.13
2022-07-26T07:52:55.328Z,95014.00
2022-07-26T07:55:43.987Z,95020.78
2022-07-26T07:58:14.557Z,94981.88
2022-07-26T08:00:42.748Z,94992.44
2022-07-26T08:03:10.642Z,95017.81
2022-07-26T08:05:40.415Z,94971.56
2022-07-26T08:08:08.812Z,94987.31
2022-07-26T08:10:41.829Z,95018.47
2022-07-26T08:13:16.983Z,95005.13
2022-07-26T08:15:49.273Z,95011.06
2022-07-26T08:18:17.342Z,94996.97
2022-07-26T08:20:47.677Z,95007.59
2022-07-26T08:23:16.524Z,95000.56
2022-07-26T08:25:55.609Z,94997.66
2022-07-26T08:28:45.606Z,95004.44
2022-07-26T08:31:11.971Z,94976.16
2022-07-26T08:33:40.827Z,94947.28
2022-07-26T08:36:13.663Z,94988.78
2022-07-26T08:38:41.915Z,94973.72
2022-07-26T08:41:11.172Z,94999.94
2022-07-26T08:43:50.974Z,94990.50
2022-07-26T08:46:25.299Z,94987.91
2022-07-26T08:48:54.304Z,94980.91
2022-07-26T08:51:24.655Z,94970.81
2022-07-26T08:54:04.102Z,94977.50
2022-07-26T08:56:35.876Z,94980.59
2022-07-26T08:59:18.810Z,94935.94
2022-07-26T09:01:58.829Z,94946.81
2022-07-26T09:04:32.314Z,94979.97
2022-07-26T09:07:07.188Z,94977.94
2022-07-26T09:09:37.701Z,94982.56
2022-07-26T09:12:18.255Z,94970.13
2022-07-26T09:14:47.700Z,94973.13
2022-07-26T09:17:17.225Z,94968.84
2022-07-26T09:19:45.289Z,94965.50
2022-07-26T09:22:15.971Z,94968.09
2022-07-26T09:24:46.223Z,94970.91
2022-07-26T09:27:18.213Z,94965.78
2022-07-26T09:29:48.433Z,94968.13
2022-07-26T09:32:19.357Z,94965.00
2022-07-26T09:34:52.964Z,94964.25
2022-07-26T09:37:34.273Z,94952.00
2022-07-26T09:40:03.948Z,94963.03
2022-07-26T09:42:33.241Z,94958.13
2022-07-26T09:45:01.378Z,94840.44
2022-07-26T09:47:39.768Z,94951.41
2022-07-26T09:50:12.612Z,94950.44
2022-07-26T09:52:40.943Z,94939.47
2022-07-26T09:55:10.445Z,94942.47
2022-07-26T09:57:39.861Z,94951.72
2022-07-26T10:00:09.171Z,94940.69
2022-07-26T10:02:37.112Z,94939.50
2022-07-26T10:05:05.325Z,94947.53
2022-07-26T10:07:33.481Z,94943.88
2022-07-26T10:10:05.489Z,94937.47
2022-07-26T10:12:34.557Z,94935.94
2022-07-26T10:15:04.014Z,94928.41
2022-07-26T10:17:42.738Z,94923.59
2022-07-26T10:20:17.259Z,94931.75
2022-07-26T10:22:49.030Z,94910.97
2022-07-26T10:25:48.676Z,94927.53
2022-07-26T10:28:28.638Z,94922.25
2022-07-26T10:31:29.412Z,94923.13
2022-07-26T10:33:59.376Z,94866.47
2022-07-26T10:36:32.495Z,94914.19
2022-07-26T10:39:12.507Z,94912.88
2022-07-26T10:41:43.926Z,94904.66
2022-07-26T10:44:17.278Z,94899.00
2022-07-26T10:47:20.575Z,94894.13
2022-07-26T10:49:58.547Z,94899.56
2022-07-26T10:52:28.428Z,94904.94
2022-07-26T10:55:18.119Z,94883.97
2022-07-26T10:57:48.999Z,94882.78
2022-07-26T11:00:23.423Z,94884.75
2022-07-26T11:02:57.690Z,94881.03
2022-07-26T11:05:31.161Z,94880.53
2022-07-26T11:08:08.218Z,94875.75
2022-07-26T11:10:38.076Z,94819.56
2022-07-26T11:13:12.032Z,94810.88
2022-07-26T11:15:42.718Z,94858.78
2022-07-26T11:18:24.983Z,94861.63
2022-07-26T11:20:56.610Z,94829.88
2022-07-26T11:23:33.576Z,94846.75
2022-07-26T11:26:09.879Z,94838.16
2022-07-26T11:28:52.895Z,94841.66
2022-07-26T11:31:23.671Z,94836.56
2022-07-26T11:34:18.305Z,94812.13
2022-07-26T11:36:48.324Z,94833.34
2022-07-26T11:39:21.761Z,94826.41
2022-07-26T11:41:52.264Z,94784.94
2022-07-26T11:44:21.825Z,94818.69
2022-07-26T11:46:50.729Z,94827.06
2022-07-26T11:49:22.848Z,94814.78
2022-07-26T11:51:53.973Z,94811.13
2022-07-26T11:54:22.618Z,94787.63
2022-07-26T11:56:59.182Z,94807.00
2022-07-26T11:59:29.049Z,94802.63
2022-07-26T12:01:58.043Z,94776.41
2022-07-26T12:04:27.629Z,94805.94
2022-07-26T12:06:59.287Z,94803.75
2022-07-26T12:09:32.357Z,94794.06
2022-07-26T12:12:00.774Z,94799.25
2022-07-26T12:14:29.558Z,94796.31
2022-07-26T12:16:58.006Z,94752.25
2022-07-26T12:19:29.788Z,94788.09
2022-07-26T12:22:08.488Z,94798.09
2022-07-26T12:24:49.825Z,94797.09
2022-07-26T12:27:19.797Z,94780.97
2022-07-26T12:29:50.344Z,94789.78
2022-07-26T12:32:19.578Z,94788.63
2022-07-26T12:35:00.160Z,94781.94
2022-07-26T12:37:39.771Z,94783.50
2022-07-26T12:40:11.505Z,94780.56
2022-07-26T12:42:41.612Z,94780.75
2022-07-26T12:45:12.278Z,94763.75
2022-07-26T12:47:41.959Z,94756.78
2022-07-26T12:50:11.962Z,94777.22
2022-07-26T12:52:41.867Z,94772.94
2022-07-26T12:55:14.538Z,94723.50
2022-07-26T12:57:45.978Z,94772.38
2022-07-26T13:00:18.491Z,94766.66
2022-07-26T13:02:47.027Z,94742.38
2022-07-26T13:05:15.415Z,94753.84
2022-07-26T13:07:44.772Z,94761.66
2022-07-26T13:10:32.398Z,94753.22
2022-07-26T13:13:01.250Z,94721.34
2022-07-26T13:15:36.584Z,94743.84
2022-07-26T13:18:06.584Z,94757.34
2022-07-26T13:20:34.544Z,94762.88
2022-07-26T13:23:04.363Z,94759.75
2022-07-26T13:25:38.343Z,94760.44
2022-07-26T13:28:08.983Z,94742.53
2022-07-26T13:30:39.320Z,94746.06
2022-07-26T13:33:08.179Z,94758.00
2022-07-26T13:35:38.925Z,94757.72
2022-07-26T13:38:08.158Z,94756.44
2022-07-26T13:40:36.280Z,94763.72
2022-07-26T13:43:05.430Z,94757.94
2022-07-26T13:45:33.337Z,94755.53
2022-07-26T13:48:01.324Z,94757.28
2022-07-26T13:50:29.295Z,94745.63
2022-07-26T13:52:57.746Z,94752.84
2022-07-26T13:55:27.037Z,94745.13
2022-07-26T13:57:56.799Z,94753.16
2022-07-26T14:00:25.970Z,94751.44
2022-07-26T14:02:53.990Z,94756.13
2022-07-26T14:05:22.001Z,94743.44
2022-07-26T14:07:50.302Z,94744.66
2022-07-26T14:10:18.304Z,94742.84
2022-07-26T14:12:47.891Z,94719.69
2022-07-26T14:15:21.618Z,94678.97
2022-07-26T14:17:50.893Z,94723.22
2022-07-26T14:20:18.884Z,94652.47
2022-07-26T14:22:47.823Z,94729.47
2022-07-26T14:25:15.789Z,94727.00
2022-07-26T14:27:44.202Z,94722.72
2022-07-26T14:30:14.776Z,94709.44
2022-07-26T14:32:42.683Z,94719.00
2022-07-26T14:35:11.325Z,94696.50
2022-07-26T14:37:43.251Z,94722.09
2022-07-26T14:40:14.040Z,94698.31
2022-07-26T14:42:42.097Z,94702.88
2022-07-26T14:45:10.926Z,94708.78
2022-07-26T14:47:40.578Z,94705.34
2022-07-26T14:50:10.188Z,94704.81
2022-07-26T14:52:39.130Z,94715.16
2022-07-26T14:55:07.978Z,94709.81
2022-07-26T14:57:38.217Z,94705.88
2022-07-26T15:00:09.345Z,94682.25
2022-07-26T15:02:41.312Z,94697.91
2022-07-26T15:05:10.474Z,94650.06
2022-07-26T15:07:38.662Z,94697.03
2022-07-26T15:10:08.265Z,94683.91
2022-07-26T15:12:36.336Z,94672.09
2022-07-26T15:15:05.047Z,94690.03
2022-07-26T15:17:33.186Z,94681.28
2022-07-26T15:20:02.954Z,94597.63
2022-07-26T15:22:30.896Z,94663.41
2022-07-26T15:24:58.756Z,94679.13
2022-07-26T15:27:26.655Z,94679.44
2022-07-26T15:29:58.276Z,94678.34
2022-07-26T15:32:30.688Z,94660.66
2022-07-26T15:34:58.827Z,94680.09
2022-07-26T15:37:28.907Z,94678.44
2022-07-26T15:39:56.866Z,94634.09
2022-07-26T15:42:24.795Z,94671.53
2022-07-26T15:44:53.042Z,94676.78
2022-07-26T15:47:52.210Z,94677.03
2022-07-26T15:50:11.756Z,94671.59
2022-07-26T15:52:44.491Z,94649.34
2022-07-26T15:55:14.180Z,94606.38
2022-07-26T15:57:42.511Z,94665.28
2022-07-26T16:00:12.555Z,94675.06
2022-07-26T16:02:41.366Z,94663.41
2022-07-26T16:05:10.581Z,94674.81
2022-07-26T16:07:41.648Z,94674.81
2022-07-26T16:10:10.691Z,94665.91
2022-07-26T16:12:38.788Z,94672.53
2022-07-26T16:15:08.504Z,94597.53
2022-07-26T16:17:36.524Z,94658.06
2022-07-26T16:20:05.623Z,94667.53
2022-07-26T16:22:33.559Z,94650.91
2022-07-26T16:25:02.917Z,94682.63
2022-07-26T16:27:30.834Z,94676.25
2022-07-26T16:29:58.758Z,94683.31
2022-07-26T16:32:26.704Z,94675.38
2022-07-26T16:34:54.577Z,94679.44
2022-07-26T16:37:22.634Z,94677.69
2022-07-26T16:39:50.623Z,94642.69
2022-07-26T16:42:19.961Z,94684.44
2022-07-26T16:44:47.845Z,94682.63
2022-07-26T16:47:15.864Z,94676.47
2022-07-26T16:49:43.857Z,94678.44
2022-07-26T16:52:11.772Z,94688.81
2022-07-26T16:54:39.697Z,94639.28
2022-07-26T16:57:07.587Z,94688.34
2022-07-26T16:59:36.886Z,94692.88
2022-07-26T17:02:05.373Z,94693.38
2022-07-26T17:04:33.293Z,94684.78
2022-07-26T17:07:23.857Z,94693.72
2022-07-26T17:09:49.413Z,94697.28
2022-07-26T17:12:17.521Z,94702.09
2022-07-26T17:14:46.831Z,94702.88
2022-07-26T17:17:14.740Z,94695.19
2022-07-26T17:19:42.671Z,94703.75
2022-07-26T17:22:10.574Z,94681.47
2022-07-26T17:24:38.468Z,94704.38
2022-07-26T17:27:06.596Z,94697.09
2022-07-26T17:29:34.622Z,94695.50
2022-07-26T17:32:03.964Z,94697.63
2022-07-26T17:34:32.257Z,94701.41
2022-07-26T17:37:01.214Z,94701.91
2022-07-26T17:39:52.718Z,94697.78
2022-07-26T17:42:19.422Z,94666.50
2022-07-26T17:44:47.281Z,94697.75
2022-07-26T17:47:17.995Z,94698.91
2022-07-26T17:50:09.031Z,94708.25
2022-07-26T17:52:42.353Z,94711.75
2022-07-26T17:55:10.894Z,94710.59
2022-07-26T17:57:38.873Z,94714.47
2022-07-26T18:00:08.072Z,94714.38
2022-07-26T18:02:37.360Z,94724.25
2022-07-26T18:05:05.775Z,94720.31
2022-07-26T18:07:33.822Z,94714.69
2022-07-26T18:10:01.729Z,94721.84
2022-07-26T18:12:30.515Z,94723.59
2022-07-26T18:14:58.457Z,94733.56
2022-07-26T18:17:26.437Z,94745.06
2022-07-26T18:19:55.692Z,94736.94
2022-07-26T18:22:24.143Z,94744.44
2022-07-26T18:24:52.058Z,94746.31
2022-07-26T18:27:19.956Z,94746.38
2022-07-26T18:29:47.844Z,94752.91
2022-07-26T18:32:16.270Z,94762.09
2022-07-26T18:34:51.818Z,94756.09
2022-07-26T18:37:22.445Z,94765.06
2022-07-26T18:39:57.011Z,94759.06
2022-07-26T18:42:25.666Z,94751.84
2022-07-26T18:44:53.673Z,94761.44
2022-07-26T18:47:21.823Z,94770.28
2022-07-26T18:49:50.233Z,94772.59
2022-07-26T18:52:32.283Z,94770.31
2022-07-26T18:55:06.727Z,94763.22
2022-07-26T18:57:35.572Z,94769.41
2022-07-26T19:00:03.711Z,94729.91
2022-07-26T19:02:31.971Z,94769.56
2022-07-26T19:04:59.918Z,94772.03
2022-07-26T19:07:27.879Z,94764.63
2022-07-26T19:09:58.581Z,94779.44
2022-07-26T19:12:28.819Z,94783.44
2022-07-26T19:14:59.842Z,94780.84
2022-07-26T19:17:27.936Z,94784.41
2022-07-26T19:19:58.409Z,94781.28
2022-07-26T19:22:29.230Z,94771.03
2022-07-26T19:24:57.208Z,94780.31
2022-07-26T19:27:25.960Z,94774.13
2022-07-26T19:29:56.849Z,94684.22
2022-07-26T19:32:26.314Z,94768.25
2022-07-26T19:34:56.660Z,94722.25
2022-07-26T19:37:24.657Z,94767.94
2022-07-26T19:39:53.786Z,94777.06
2022-07-26T19:42:21.724Z,94775.50
2022-07-26T19:44:50.673Z,94741.03
2022-07-26T19:47:20.000Z,94778.25
2022-07-26T19:49:49.299Z,94775.31
2022-07-26T19:52:17.224Z,94771.72
2022-07-26T19:54:45.154Z,94775.28
2022-07-26T19:57:13.083Z,94751.56
2022-07-26T19:59:41.078Z,94769.72
2022-07-26T20:02:09.290Z,94756.69
2022-07-26T20:04:40.770Z,94776.72
2022-07-26T20:07:12.037Z,94777.31
2022-07-26T20:09:40.001Z,94782.25
2022-07-26T20:12:07.969Z,94774.47
2022-07-26T20:14:35.922Z,94781.22
2022-07-26T20:17:03.869Z,94780.47
2022-07-26T20:19:41.512Z,94781.38
2022-07-26T20:22:09.420Z,94782.19
2022-07-26T20:24:38.343Z,94782.31
2022-07-26T20:27:06.754Z,94783.88
2022-07-26T20:29:34.952Z,94784.97
2022-07-26T20:32:02.916Z,94771.38
2022-07-26T20:34:31.001Z,94770.44
2022-07-26T20:37:00.263Z,94788.31
2022-07-26T20:39:28.159Z,94774.56
2022-07-26T20:41:57.154Z,94782.75
2022-07-26T20:44:28.496Z,94776.06
2022-07-26T20:46:56.620Z,94789.44
2022-07-26T20:49:24.691Z,94793.34
2022-07-26T20:51:52.661Z,94796.56
2022-07-26T20:54:21.959Z,94802.66
2022-07-26T20:56:49.950Z,94798.72
2022-07-26T20:59:17.886Z,94770.13
2022-07-26T21:01:45.836Z,94808.41
2022-07-26T21:04:13.749Z,94773.19
2022-07-26T21:06:41.639Z,94799.97
2022-07-26T21:09:10.549Z,94813.81
2022-07-26T21:11:40.517Z,94807.72
2022-07-26T21:14:08.424Z,94816.19
2022-07-26T21:16:36.541Z,94820.06
2022-07-26T21:19:05.766Z,94812.53
2022-07-26T21:21:34.748Z,94823.97
2022-07-26T21:24:02.716Z,94736.69
2022-07-26T21:26:30.648Z,94826.03
2022-07-26T21:28:59.999Z,94830.31
2022-07-26T21:31:27.920Z,94825.44
2022-07-26T21:33:55.853Z,94820.97
2022-07-26T21:36:24.271Z,94823.84
2022-07-26T21:38:52.163Z,94828.28
2022-07-26T21:41:21.077Z,94736.59
2022-07-26T21:43:49.330Z,94834.44
2022-07-26T21:46:18.574Z,94830.66
2022-07-26T21:48:46.581Z,94835.56
2022-07-26T21:51:14.533Z,94824.13
2022-07-26T21:53:42.446Z,94823.16
2022-07-26T21:56:11.285Z,94822.28
2022-07-26T21:58:39.629Z,94818.50
2022-07-26T22:01:08.173Z,94825.91
2022-07-26T22:03:38.397Z,94823.16
2022-07-26T22:06:07.138Z,94833.97
2022-07-26T22:08:35.326Z,94818.69
2022-07-26T22:11:04.645Z,94754.47
2022-07-26T22:13:32.897Z,94827.66
2022-07-26T22:16:00.933Z,94822.16
2022-07-26T22:18:29.363Z,94818.59
2022-07-26T22:20:58.985Z,94823.69
2022-07-26T22:23:30.205Z,94813.16
2022-07-26T22:25:59.123Z,94821.28
2022-07-26T22:28:27.304Z,94824.78
2022-07-26T22:30:55.713Z,94822.59
2022-07-26T22:33:24.468Z,94798.06
2022-07-26T22:35:52.795Z,94820.88
2022-07-26T22:38:22.223Z,94827.16
2022-07-26T22:40:50.143Z,94828.78
2022-07-26T22:43:18.328Z,94828.25
2022-07-26T22:45:46.338Z,94815.19
2022-07-26T22:48:14.307Z,94829.41
2022-07-26T22:50:42.322Z,94827.66
2022-07-26T22:53:10.178Z,94841.34
2022-07-26T22:55:39.456Z,94835.75
2022-07-26T22:58:07.367Z,94821.53
2022-07-26T23:00:35.362Z,94842.84
2022-07-26T23:03:03.316Z,94805.22
2022-07-26T23:05:46.609Z,94849.22
2022-07-26T23:11:05.361Z,94841.41
2022-07-26T23:13:33.320Z,94840.78
2022-07-26T23:16:01.974Z,94844.13
2022-07-26T23:18:30.712Z,94829.69
2022-07-26T23:20:58.919Z,94835.38
2022-07-26T23:23:29.273Z,94848.03
2022-07-26T23:25:58.813Z,94846.16
2022-07-26T23:28:37.152Z,94847.50
2022-07-26T23:31:10.794Z,94867.22
2022-07-26T23:33:52.129Z,94839.03
2022-07-26T23:36:25.841Z,94863.19
2022-07-26T23:38:54.490Z,94816.56
2022-07-26T23:41:22.957Z,94858.63
2022-07-26T23:43:52.725Z,94865.47
2022-07-26T23:46:20.787Z,94855.41
2022-07-26T23:48:49.100Z,94859.06
2022-07-26T23:51:17.536Z,94815.63
2022-07-26T23:53:45.500Z,94856.50
2022-07-26T23:56:13.736Z,94863.06
2022-07-26T23:58:41.747Z,94859.31
